Lake Wales, FL

2:49 PM EDT on March 28, 2015 (GMT -0400)
APRSWXNET Indian Lake Estates FL US | | Change Station
CLOSE
Current Station
Personal Weather Station
Location: Lake Wales, FL
Elevation: 121 ft
Nearby Weather Stations

Elev 121 ft 27.79 °N, 81.33 °W | Updated 47 minutes ago

Mostly Cloudy
Mostly Cloudy
66.0 °F
Feels Like 66.0 °F
N
10.0
Wind Variable Wind from NW
Gusts 20.0 mph

Today
High -- | Low -- °F
--% Chance of Precip.
Yesterday
High -- | Low -- °F
Precip. -- in
7:20 AM 7:40 PM
Waxing Gibbous, 64% visible
Pressure 30.17 in
Visibility 10.0 miles
Clouds Few 11000 ft
Mostly Cloudy 20000 ft
Dew Point 44.0 °F
Humidity 45%
Rainfall in
Snow Depth Not available.
UV 7 out of 12
Pollen 10.90 out of 12
Air Quality Not available.
Flu Activity Not available.
METAR KBOW 281747Z 29015G25KT 10SM FEW110 BKN200 18/02 A3017

More Conditions Fewer Conditions

Pressure 30.17 in
Visibility 10.0 miles
Clouds Few 11000 ft
Mostly Cloudy 20000 ft
Dew Point 44.0 °F
Humidity 45%
Rainfall in
Snow Depth Not available.
UV 7 out of 12
Pollen 10.90 out of 12
Air Quality Not available.
Flu Activity Not available.
METAR KBOW 281747Z 29015G25KT 10SM FEW110 BKN200 18/02 A3017

More Conditions Fewer Conditions

10-Day Weather Forecast

Almanac

Astronomy

Mar. 28, 2015 Rise Set
Actual Time
Civil Twilight
Nautical Twilight
Astronomical Twilight
Moon
Length of Visible Light
Length of Day
Tomorrow will be .
, % of the Moon is Illuminated

Today's Extremes

State Highs State Lows

Community

WunderPhotos

Upload Photos

1,809,055 photos uploaded!

WunderBlogs® & News

Nearby

Air Quality

  Air Quality AQ Index Pollutant
Not available.

Snow Depth

Station Depth Elevation

Earthquake Activity

City Distance Mag. Time & Date
Minimum magnitude displayed is 2.5.

Coastal Water Temperatures

Place Temperature

Stations

Nearby Weather Stations

Station Location Temp. Windchill Dew Point Humidity Wind Precip. Elev Updated Type